Pecos, TX

5:21 AM CDT on March 26, 2017 (GMT -0500)
Pecos Municipal

Weather History for KPEQ - August, 2012

Change the Weather History Date:

Saturday, August 11, 2012

  Actual Average Record
Temperature  
Mean Temperature 85 °F -  
Max Temperature 103 °F 96 °F 108 °F (1968)
Min Temperature 68 °F 67 °F 57 °F (1915)
Cooling Degree Days 20    
Growing Degree Days 35 (Base 50)    
Moisture  
Dew Point 45 °F    
Average Humidity 24    
Maximum Humidity 44    
Minimum Humidity 14    
Precipitation  
Precipitation 0.00 in - - ()
Sea Level Pressure  
Sea Level Pressure 29.98 in    
Wind  
Wind Speed 7 mph (East)    
Max Wind Speed 14 mph    
Max Gust Speed 21 mph    
Visibility 10 miles    
Events      
Averages and records for this station are not official NWS values.
T = Trace of Precipitation, MM = Missing Value Source: NWS Daily Summary

Daily Weather History Graph

Daily Weather History Graph

Search for Another Location

Airport or City:

Trip Planner

Search our weather history database for the weather conditions in past years. The results will help you decide how hot, cold, wet, or windy it might be!

Date:

Astronomy

Aug. 11, 2012 Rise Set
Actual Time 7:17 AM CDT 8:40 PM CDT
Civil Twilight 6:51 AM CDT 9:06 PM CDT
Nautical Twilight 6:20 AM CDT 9:36 PM CDT
Astronomical Twilight 5:48 AM CDT 10:08 PM CDT
Moon 1:53 AM CDT (8/11) 4:09 PM CDT (8/11)
Length of Visible Light 14h 14m
Length of Day
13h 23m
Waning Crescent, 32% of the Moon is Illuminated
Aug 11
Waning Crescent
Aug 17
New
Aug 24
First Quarter
Aug 31
Full
Sep 8
Last Quarter

Hourly Weather History & Observations

Time (CDT) Temp. Dew Point Humidity Pressure Visibility Wind Dir Wind Speed Gust Speed Precip Events Conditions
1:55 AM 79.2 °F 43.3 °F 28% 30.00 in 10.0 mi ENE 9.2 mph - N/A   Clear
2:15 AM 79.9 °F 43.0 °F 27% 30.00 in 10.0 mi ENE 9.2 mph - N/A   Clear
2:35 AM 79.0 °F 42.8 °F 28% 30.00 in 10.0 mi East 6.9 mph - N/A   Clear
2:55 AM 78.1 °F 42.8 °F 28% 30.00 in 10.0 mi ENE 6.9 mph - N/A   Clear
3:15 AM 77.0 °F 42.8 °F 29% 30.00 in 10.0 mi East 4.6 mph - N/A   Clear
3:35 AM 76.5 °F 42.4 °F 30% 30.00 in 10.0 mi East 6.9 mph - N/A   Clear
3:55 AM 75.9 °F 41.9 °F 30% 30.00 in 10.0 mi ESE 4.6 mph - N/A   Clear
4:15 AM 74.7 °F 41.9 °F 31% 30.00 in 10.0 mi ESE 4.6 mph - N/A   Clear
4:35 AM 73.8 °F 41.9 °F 32% 30.00 in 10.0 mi ESE 4.6 mph - N/A   Clear
4:55 AM 73.6 °F 41.9 °F 32% 30.00 in 10.0 mi ESE 3.5 mph - N/A   Clear
5:15 AM 72.1 °F 41.9 °F 34% 30.00 in 10.0 mi SSE 3.5 mph - N/A   Clear
5:35 AM 71.6 °F 41.9 °F 34% 30.00 in 10.0 mi SSE 3.5 mph - N/A   Clear
5:55 AM 71.6 °F 41.9 °F 34% 30.01 in 10.0 mi Calm Calm - N/A   Clear
6:15 AM 71.4 °F 41.9 °F 34% 30.00 in 10.0 mi WSW 3.5 mph - N/A   Clear
6:35 AM 68.7 °F 43.3 °F 40% 30.02 in 10.0 mi West 6.9 mph - N/A   Clear
6:55 AM 68.0 °F 44.4 °F 43% 30.02 in 10.0 mi WNW 5.8 mph - N/A   Clear
7:15 AM 68.0 °F 45.1 °F 44% 30.02 in 10.0 mi WNW 5.8 mph - N/A   Clear
7:35 AM 68.5 °F 44.2 °F 42% 30.02 in 7.0 mi NNW 4.6 mph - N/A   Clear
7:55 AM 69.3 °F 43.3 °F 39% 30.03 in 10.0 mi NW 4.6 mph - N/A   Clear
8:15 AM 70.9 °F 43.3 °F 37% 30.04 in 10.0 mi NW 4.6 mph - N/A   Clear
8:35 AM 73.4 °F 43.7 °F 34% 30.05 in 10.0 mi NNE 4.6 mph - N/A   Clear
8:55 AM 76.1 °F 43.0 °F 31% 30.05 in 10.0 mi North 5.8 mph - N/A   Clear
10:15 AM 81.3 °F 45.1 °F 28% 30.06 in 10.0 mi NNE 6.9 mph - N/A   Clear
10:35 AM 82.4 °F 46.2 °F 28% 30.06 in 10.0 mi NNE 6.9 mph - N/A   Clear
10:55 AM 83.5 °F 47.3 °F 28% 30.06 in 10.0 mi North 4.6 mph - N/A   Clear
11:15 AM 85.5 °F 48.6 °F 28% 30.06 in 10.0 mi NNE 4.6 mph - N/A   Clear
11:35 AM 87.3 °F 48.9 °F 27% 30.05 in 10.0 mi NNE 3.5 mph - N/A   Clear
11:55 AM 90.1 °F 49.6 °F 25% 30.05 in 10.0 mi Calm Calm - N/A   Clear
12:15 PM 91.9 °F 50.0 °F 24% 30.04 in 10.0 mi NE 4.6 mph - N/A   Clear
12:35 PM 94.1 °F 50.2 °F 22% 30.04 in 10.0 mi North 4.6 mph - N/A   Clear
12:55 PM 94.6 °F 50.4 °F 22% 30.03 in 10.0 mi East 4.6 mph - N/A   Clear
1:15 PM 96.8 °F 51.3 °F 21% 30.02 in 10.0 mi SSE 8.1 mph - N/A   Clear
1:35 PM 96.4 °F 50.5 °F 21% 30.02 in 10.0 mi ESE 5.8 mph - N/A   Clear
1:55 PM 97.2 °F 49.6 °F 20% 30.00 in 10.0 mi ESE 5.8 mph - N/A   Clear
2:15 PM 98.8 °F 48.7 °F 18% 30.00 in 10.0 mi ENE 6.9 mph - N/A   Clear
2:35 PM 100.6 °F 47.8 °F 17% 29.99 in 10.0 mi East 9.2 mph - N/A   Clear
2:55 PM 100.6 °F 46.4 °F 16% 29.98 in 10.0 mi ESE 3.5 mph 10.4 mph N/A   Clear
3:15 PM 100.8 °F 44.4 °F 15% 29.97 in 10.0 mi ESE 6.9 mph 10.4 mph N/A   Clear
3:35 PM 101.3 °F 46.2 °F 15% 29.96 in 10.0 mi SSW 8.1 mph - N/A   Clear
3:55 PM 102.2 °F 44.6 °F 14% 29.96 in 10.0 mi East 6.9 mph 16.1 mph N/A   Clear
4:15 PM 102.0 °F 45.7 °F 15% 29.95 in 10.0 mi ESE 6.9 mph - N/A   Clear
4:35 PM 102.6 °F 45.1 °F 14% 29.94 in 10.0 mi ESE 9.2 mph 17.3 mph N/A   Clear
4:55 PM 102.6 °F 43.9 °F 14% 29.93 in 10.0 mi SSE 8.1 mph 16.1 mph N/A   Clear
5:15 PM 102.6 °F 44.6 °F 14% 29.92 in 10.0 mi SE 6.9 mph - N/A   Clear
5:35 PM 102.6 °F 45.9 °F 15% 29.92 in 10.0 mi SE 11.5 mph - N/A   Clear
5:55 PM 102.0 °F 45.0 °F 14% 29.92 in 10.0 mi ESE 9.2 mph 16.1 mph N/A   Clear
6:15 PM 102.0 °F 43.7 °F 14% 29.91 in 10.0 mi SSE 9.2 mph - N/A   Clear
6:35 PM 101.7 °F 43.7 °F 14% 29.91 in 10.0 mi ESE 10.4 mph 20.7 mph N/A   Clear
6:55 PM 101.5 °F 43.3 °F 14% 29.90 in 10.0 mi ESE 13.8 mph - N/A   Clear
7:15 PM 100.6 °F 43.3 °F 14% 29.91 in 10.0 mi SE 10.4 mph 16.1 mph N/A   Clear
7:35 PM 99.9 °F 42.8 °F 14% 29.91 in 10.0 mi SE 10.4 mph 16.1 mph N/A   Clear
7:55 PM 98.8 °F 42.4 °F 14% 29.91 in 10.0 mi ESE 10.4 mph - N/A   Clear
8:15 PM 97.2 °F 42.8 °F 15% 29.91 in 10.0 mi ESE 10.4 mph - N/A   Clear
8:35 PM 95.7 °F 42.1 °F 16% 29.91 in 10.0 mi East 10.4 mph - N/A   Clear
8:55 PM 93.2 °F 41.9 °F 17% 29.92 in 10.0 mi ESE 9.2 mph - N/A   Clear
9:15 PM 90.7 °F 42.3 °F 18% 29.93 in 10.0 mi ESE 6.9 mph - N/A   Clear
9:35 PM 89.1 °F 42.3 °F 19% 29.93 in 10.0 mi ESE 8.1 mph - N/A   Clear
9:55 PM 88.0 °F 42.8 °F 21% 29.94 in 10.0 mi SE 8.1 mph - N/A   Clear
10:15 PM 86.9 °F 43.2 °F 22% 29.95 in 10.0 mi ESE 8.1 mph - N/A   Clear
10:35 PM 86.2 °F 43.7 °F 23% 29.95 in 10.0 mi SE 9.2 mph - N/A   Clear
10:55 PM 85.5 °F 44.4 °F 24% 29.96 in 10.0 mi ESE 9.2 mph - N/A   Clear
11:15 PM 84.2 °F 44.8 °F 25% 29.96 in 10.0 mi SE 8.1 mph - N/A   Clear
11:55 PM 82.4 °F 44.6 °F 26% 29.96 in 10.0 mi SE 8.1 mph - N/A   Clear